sensor_id;sensor_type;location;lat;lon;timestamp;pressure;altitude;pressure_sealevel;temperature
69597;BMP180;56802;51.184;-115.558;2022-11-20T00:01:49;86791.80;;;-5.00
69597;BMP180;56802;51.184;-115.558;2022-11-20T00:04:18;86801.60;;;-5.10
69597;BMP180;56802;51.184;-115.558;2022-11-20T00:06:47;86800.00;;;-5.10
69597;BMP180;56802;51.184;-115.558;2022-11-20T00:09:16;86797.20;;;-5.10
69597;BMP180;56802;51.184;-115.558;2022-11-20T00:11:46;86801.00;;;-5.20
69597;BMP180;56802;51.184;-115.558;2022-11-20T00:14:15;86806.60;;;-5.22
69597;BMP180;56802;51.184;-115.558;2022-11-20T00:16:45;86815.00;;;-5.30
69597;BMP180;56802;51.184;-115.558;2022-11-20T00:19:15;86806.80;;;-5.30
69597;BMP180;56802;51.184;-115.558;2022-11-20T00:21:44;86810.20;;;-5.30
69597;BMP180;56802;51.184;-115.558;2022-11-20T00:24:14;86807.60;;;-5.30
69597;BMP180;56802;51.184;-115.558;2022-11-20T00:26:43;86818.80;;;-5.34
69597;BMP180;56802;51.184;-115.558;2022-11-20T00:29:13;86814.80;;;-5.38
69597;BMP180;56802;51.184;-115.558;2022-11-20T00:31:42;86829.00;;;-5.34
69597;BMP180;56802;51.184;-115.558;2022-11-20T00:34:11;86831.00;;;-5.38
69597;BMP180;56802;51.184;-115.558;2022-11-20T00:36:40;86841.20;;;-5.40
69597;BMP180;56802;51.184;-115.558;2022-11-20T00:39:09;86835.60;;;-5.40
69597;BMP180;56802;51.184;-115.558;2022-11-20T00:41:38;86844.80;;;-5.40
69597;BMP180;56802;51.184;-115.558;2022-11-20T00:44:07;86843.60;;;-5.42
69597;BMP180;56802;51.184;-115.558;2022-11-20T00:46:37;86838.40;;;-5.44
69597;BMP180;56802;51.184;-115.558;2022-11-20T00:49:06;86835.80;;;-5.50
69597;BMP180;56802;51.184;-115.558;2022-11-20T00:51:35;86824.20;;;-5.60
69597;BMP180;56802;51.184;-115.558;2022-11-20T00:54:04;86812.00;;;-5.70
69597;BMP180;56802;51.184;-115.558;2022-11-20T00:56:35;86814.20;;;-5.80
69597;BMP180;56802;51.184;-115.558;2022-11-20T00:59:05;86826.80;;;-5.90
69597;BMP180;56802;51.184;-115.558;2022-11-20T01:01:34;86834.00;;;-5.90
69597;BMP180;56802;51.184;-115.558;2022-11-20T01:04:05;86830.20;;;-5.90
69597;BMP180;56802;51.184;-115.558;2022-11-20T01:06:37;86825.80;;;-5.96
69597;BMP180;56802;51.184;-115.558;2022-11-20T01:09:13;86816.20;;;-6.10
69597;BMP180;56802;51.184;-115.558;2022-11-20T01:11:44;86825.80;;;-6.20
69597;BMP180;56802;51.184;-115.558;2022-11-20T01:14:17;86829.80;;;-6.28
69597;BMP180;56802;51.184;-115.558;2022-11-20T01:16:50;86832.40;;;-6.36
69597;BMP180;56802;51.184;-115.558;2022-11-20T01:19:23;86845.40;;;-6.40
69597;BMP180;56802;51.184;-115.558;2022-11-20T01:21:54;86842.20;;;-6.50
69597;BMP180;56802;51.184;-115.558;2022-11-20T01:24:23;86852.80;;;-6.50
69597;BMP180;56802;51.184;-115.558;2022-11-20T01:26:52;86844.60;;;-6.50
69597;BMP180;56802;51.184;-115.558;2022-11-20T01:29:24;86854.60;;;-6.50
69597;BMP180;56802;51.184;-115.558;2022-11-20T01:31:54;86850.60;;;-6.54
69597;BMP180;56802;51.184;-115.558;2022-11-20T01:34:23;86857.00;;;-6.58
69597;BMP180;56802;51.184;-115.558;2022-11-20T01:36:53;86862.40;;;-6.60
69597;BMP180;56802;51.184;-115.558;2022-11-20T01:39:25;86863.00;;;-6.60
69597;BMP180;56802;51.184;-115.558;2022-11-20T01:41:55;86859.60;;;-6.70
69597;BMP180;56802;51.184;-115.558;2022-11-20T01:45:00;86864.20;;;-6.74
69597;BMP180;56802;51.184;-115.558;2022-11-20T01:47:45;86866.00;;;-6.80
69597;BMP180;56802;51.184;-115.558;2022-11-20T01:50:22;86863.40;;;-6.80
69597;BMP180;56802;51.184;-115.558;2022-11-20T01:52:59;86862.40;;;-6.80
69597;BMP180;56802;51.184;-115.558;2022-11-20T01:55:39;86866.20;;;-6.80
69597;BMP180;56802;51.184;-115.558;2022-11-20T01:58:10;86867.40;;;-6.80
69597;BMP180;56802;51.184;-115.558;2022-11-20T02:00:41;86869.00;;;-6.82
69597;BMP180;56802;51.184;-115.558;2022-11-20T02:03:18;86871.80;;;-6.80
69597;BMP180;56802;51.184;-115.558;2022-11-20T02:06:07;86872.00;;;-6.80
69597;BMP180;56802;51.184;-115.558;2022-11-20T02:08:39;86876.00;;;-6.80
69597;BMP180;56802;51.184;-115.558;2022-11-20T02:11:08;86874.80;;;-6.80
69597;BMP180;56802;51.184;-115.558;2022-11-20T02:13:38;86874.80;;;-6.80
69597;BMP180;56802;51.184;-115.558;2022-11-20T02:16:34;86883.80;;;-6.90
69597;BMP180;56802;51.184;-115.558;2022-11-20T02:19:13;86877.00;;;-7.02
69597;BMP180;56802;51.184;-115.558;2022-11-20T02:22:00;86875.60;;;-7.10
69597;BMP180;56802;51.184;-115.558;2022-11-20T02:24:31;86872.20;;;-7.20
69597;BMP180;56802;51.184;-115.558;2022-11-20T02:27:09;86876.40;;;-7.24
69597;BMP180;56802;51.184;-115.558;2022-11-20T02:32:28;86870.20;;;-7.38
69597;BMP180;56802;51.184;-115.558;2022-11-20T02:34:58;86878.40;;;-7.40
69597;BMP180;56802;51.184;-115.558;2022-11-20T02:37:32;86878.40;;;-7.42
69597;BMP180;56802;51.184;-115.558;2022-11-20T02:40:03;86867.00;;;-7.50
69597;BMP180;56802;51.184;-115.558;2022-11-20T02:42:33;86872.40;;;-7.50
69597;BMP180;56802;51.184;-115.558;2022-11-20T02:45:02;86874.60;;;-7.50
69597;BMP180;56802;51.184;-115.558;2022-11-20T02:47:32;86869.60;;;-7.50
69597;BMP180;56802;51.184;-115.558;2022-11-20T02:50:02;86875.60;;;-7.50
69597;BMP180;56802;51.184;-115.558;2022-11-20T02:52:31;86879.40;;;-7.50
69597;BMP180;56802;51.184;-115.558;2022-11-20T02:55:04;86874.20;;;-7.50
69597;BMP180;56802;51.184;-115.558;2022-11-20T02:57:34;86882.40;;;-7.54
69597;BMP180;56802;51.184;-115.558;2022-11-20T03:00:05;86877.00;;;-7.60
69597;BMP180;56802;51.184;-115.558;2022-11-20T03:02:35;86870.00;;;-7.70
69597;BMP180;56802;51.184;-115.558;2022-11-20T03:05:04;86860.80;;;-7.72
69597;BMP180;56802;51.184;-115.558;2022-11-20T03:07:33;86865.80;;;-7.80
69597;BMP180;56802;51.184;-115.558;2022-11-20T03:10:04;86863.80;;;-7.80
69597;BMP180;56802;51.184;-115.558;2022-11-20T03:12:33;86871.80;;;-7.90
69597;BMP180;56802;51.184;-115.558;2022-11-20T03:15:03;86870.20;;;-7.88
69597;BMP180;56802;51.184;-115.558;2022-11-20T03:17:32;86871.40;;;-7.90
69597;BMP180;56802;51.184;-115.558;2022-11-20T03:20:01;86875.20;;;-7.90
69597;BMP180;56802;51.184;-115.558;2022-11-20T03:22:30;86880.80;;;-8.00
69597;BMP180;56802;51.184;-115.558;2022-11-20T03:24:59;86880.20;;;-8.02
69597;BMP180;56802;51.184;-115.558;2022-11-20T03:27:35;86883.20;;;-8.10
69597;BMP180;56802;51.184;-115.558;2022-11-20T03:30:05;86894.40;;;-8.16
69597;BMP180;56802;51.184;-115.558;2022-11-20T03:32:35;86897.80;;;-8.14
69597;BMP180;56802;51.184;-115.558;2022-11-20T03:35:05;86901.80;;;-8.10
69597;BMP180;56802;51.184;-115.558;2022-11-20T03:37:34;86903.80;;;-8.10
69597;BMP180;56802;51.184;-115.558;2022-11-20T03:40:04;86913.40;;;-8.10
69597;BMP180;56802;51.184;-115.558;2022-11-20T03:42:34;86907.60;;;-8.10
69597;BMP180;56802;51.184;-115.558;2022-11-20T03:45:18;86907.80;;;-8.10
69597;BMP180;56802;51.184;-115.558;2022-11-20T03:47:47;86912.20;;;-8.10
69597;BMP180;56802;51.184;-115.558;2022-11-20T03:50:17;86906.20;;;-8.10
69597;BMP180;56802;51.184;-115.558;2022-11-20T03:52:46;86908.80;;;-8.10
69597;BMP180;56802;51.184;-115.558;2022-11-20T03:55:15;86903.00;;;-8.10
69597;BMP180;56802;51.184;-115.558;2022-11-20T03:57:44;86899.20;;;-8.10
69597;BMP180;56802;51.184;-115.558;2022-11-20T04:00:14;86898.60;;;-8.10
69597;BMP180;56802;51.184;-115.558;2022-11-20T04:02:43;86906.80;;;-8.00
69597;BMP180;56802;51.184;-115.558;2022-11-20T04:05:12;86910.80;;;-8.00
69597;BMP180;56802;51.184;-115.558;2022-11-20T04:07:42;86912.00;;;-8.00
69597;BMP180;56802;51.184;-115.558;2022-11-20T04:10:11;86912.40;;;-8.00
69597;BMP180;56802;51.184;-115.558;2022-11-20T04:12:40;86914.40;;;-8.00
69597;BMP180;56802;51.184;-115.558;2022-11-20T04:15:09;86917.80;;;-8.10
69597;BMP180;56802;51.184;-115.558;2022-11-20T04:17:39;86920.40;;;-8.20
69597;BMP180;56802;51.184;-115.558;2022-11-20T04:20:08;86919.60;;;-8.30
69597;BMP180;56802;51.184;-115.558;2022-11-20T04:22:37;86923.20;;;-8.40
69597;BMP180;56802;51.184;-115.558;2022-11-20T04:25:07;86921.00;;;-8.40
69597;BMP180;56802;51.184;-115.558;2022-11-20T04:27:36;86925.00;;;-8.40
69597;BMP180;56802;51.184;-115.558;2022-11-20T04:30:06;86935.40;;;-8.40
69597;BMP180;56802;51.184;-115.558;2022-11-20T04:32:37;86925.80;;;-8.46
69597;BMP180;56802;51.184;-115.558;2022-11-20T04:35:07;86934.40;;;-8.50
69597;BMP180;56802;51.184;-115.558;2022-11-20T04:37:39;86932.60;;;-8.60
69597;BMP180;56802;51.184;-115.558;2022-11-20T04:40:09;86937.80;;;-8.60
69597;BMP180;56802;51.184;-115.558;2022-11-20T04:42:38;86942.20;;;-8.60
69597;BMP180;56802;51.184;-115.558;2022-11-20T04:45:07;86929.40;;;-8.60
69597;BMP180;56802;51.184;-115.558;2022-11-20T04:47:36;86931.20;;;-8.60
69597;BMP180;56802;51.184;-115.558;2022-11-20T04:50:06;86935.20;;;-8.60
69597;BMP180;56802;51.184;-115.558;2022-11-20T04:52:36;86931.80;;;-8.60
69597;BMP180;56802;51.184;-115.558;2022-11-20T04:55:06;86933.60;;;-8.60
69597;BMP180;56802;51.184;-115.558;2022-11-20T04:57:35;86935.20;;;-8.70
69597;BMP180;56802;51.184;-115.558;2022-11-20T05:00:05;86931.80;;;-8.70
69597;BMP180;56802;51.184;-115.558;2022-11-20T05:02:34;86938.40;;;-8.78
69597;BMP180;56802;51.184;-115.558;2022-11-20T05:05:04;86939.20;;;-8.80
69597;BMP180;56802;51.184;-115.558;2022-11-20T05:07:33;86941.60;;;-8.78
69597;BMP180;56802;51.184;-115.558;2022-11-20T05:10:02;86943.40;;;-8.74
69597;BMP180;56802;51.184;-115.558;2022-11-20T05:12:31;86936.80;;;-8.80
69597;BMP180;56802;51.184;-115.558;2022-11-20T05:15:01;86943.60;;;-8.80
69597;BMP180;56802;51.184;-115.558;2022-11-20T05:17:30;86948.60;;;-8.90
69597;BMP180;56802;51.184;-115.558;2022-11-20T05:19:59;86949.20;;;-9.00
69597;BMP180;56802;51.184;-115.558;2022-11-20T05:22:28;86942.40;;;-9.04
69597;BMP180;56802;51.184;-115.558;2022-11-20T05:24:58;86945.00;;;-9.10
69597;BMP180;56802;51.184;-115.558;2022-11-20T05:27:27;86936.20;;;-9.20
69597;BMP180;56802;51.184;-115.558;2022-11-20T05:29:56;86944.00;;;-9.20
69597;BMP180;56802;51.184;-115.558;2022-11-20T05:32:26;86941.20;;;-9.30
69597;BMP180;56802;51.184;-115.558;2022-11-20T05:34:54;86937.60;;;-9.34
69597;BMP180;56802;51.184;-115.558;2022-11-20T05:37:24;86936.80;;;-9.32
69597;BMP180;56802;51.184;-115.558;2022-11-20T05:39:53;86932.40;;;-9.40
69597;BMP180;56802;51.184;-115.558;2022-11-20T05:42:22;86940.40;;;-9.40
69597;BMP180;56802;51.184;-115.558;2022-11-20T05:45:03;86952.00;;;-9.40
69597;BMP180;56802;51.184;-115.558;2022-11-20T05:47:36;86951.80;;;-9.40
69597;BMP180;56802;51.184;-115.558;2022-11-20T05:50:06;86946.60;;;-9.40
69597;BMP180;56802;51.184;-115.558;2022-11-20T05:52:37;86940.60;;;-9.40
69597;BMP180;56802;51.184;-115.558;2022-11-20T05:55:08;86934.80;;;-9.40
69597;BMP180;56802;51.184;-115.558;2022-11-20T05:57:37;86941.40;;;-9.34
69597;BMP180;56802;51.184;-115.558;2022-11-20T06:00:07;86945.00;;;-9.40
69597;BMP180;56802;51.184;-115.558;2022-11-20T06:02:36;86947.00;;;-9.40
69597;BMP180;56802;51.184;-115.558;2022-11-20T06:05:06;86946.40;;;-9.40
69597;BMP180;56802;51.184;-115.558;2022-11-20T06:07:35;86943.40;;;-9.40
69597;BMP180;56802;51.184;-115.558;2022-11-20T06:10:05;86936.40;;;-9.40
69597;BMP180;56802;51.184;-115.558;2022-11-20T06:12:34;86942.00;;;-9.40
69597;BMP180;56802;51.184;-115.558;2022-11-20T06:15:05;86949.20;;;-9.30
69597;BMP180;56802;51.184;-115.558;2022-11-20T06:17:34;86954.20;;;-9.30
69597;BMP180;56802;51.184;-115.558;2022-11-20T06:20:04;86946.40;;;-9.20
69597;BMP180;56802;51.184;-115.558;2022-11-20T06:22:33;86945.00;;;-9.20
69597;BMP180;56802;51.184;-115.558;2022-11-20T06:25:02;86942.80;;;-9.30
69597;BMP180;56802;51.184;-115.558;2022-11-20T06:27:31;86933.80;;;-9.40
69597;BMP180;56802;51.184;-115.558;2022-11-20T06:30:01;86927.60;;;-9.48
69597;BMP180;56802;51.184;-115.558;2022-11-20T06:32:30;86938.60;;;-9.50
69597;BMP180;56802;51.184;-115.558;2022-11-20T06:34:58;86953.00;;;-9.60
69597;BMP180;56802;51.184;-115.558;2022-11-20T06:37:31;86948.20;;;-9.70
69597;BMP180;56802;51.184;-115.558;2022-11-20T06:40:00;86938.60;;;-9.78
69597;BMP180;56802;51.184;-115.558;2022-11-20T06:42:29;86942.60;;;-9.80
69597;BMP180;56802;51.184;-115.558;2022-11-20T06:44:58;86941.40;;;-9.90
69597;BMP180;56802;51.184;-115.558;2022-11-20T06:47:27;86941.00;;;-9.90
69597;BMP180;56802;51.184;-115.558;2022-11-20T06:49:56;86942.40;;;-9.90
69597;BMP180;56802;51.184;-115.558;2022-11-20T06:52:25;86933.40;;;-9.90
69597;BMP180;56802;51.184;-115.558;2022-11-20T06:54:54;86937.20;;;-9.90
69597;BMP180;56802;51.184;-115.558;2022-11-20T06:57:23;86939.20;;;-9.92
69597;BMP180;56802;51.184;-115.558;2022-11-20T06:59:52;86940.60;;;-9.90
69597;BMP180;56802;51.184;-115.558;2022-11-20T07:02:22;86932.60;;;-9.90
69597;BMP180;56802;51.184;-115.558;2022-11-20T07:04:51;86930.60;;;-9.96
69597;BMP180;56802;51.184;-115.558;2022-11-20T07:07:20;86929.00;;;-9.90
69597;BMP180;56802;51.184;-115.558;2022-11-20T07:09:49;86929.20;;;-9.90
69597;BMP180;56802;51.184;-115.558;2022-11-20T07:12:18;86929.80;;;-10.00
69597;BMP180;56802;51.184;-115.558;2022-11-20T07:14:47;86926.40;;;-10.00
69597;BMP180;56802;51.184;-115.558;2022-11-20T07:17:17;86928.60;;;-10.06
69597;BMP180;56802;51.184;-115.558;2022-11-20T07:19:46;86931.80;;;-10.02
69597;BMP180;56802;51.184;-115.558;2022-11-20T07:22:15;86919.80;;;-10.00
69597;BMP180;56802;51.184;-115.558;2022-11-20T07:24:44;86914.40;;;-10.10
69597;BMP180;56802;51.184;-115.558;2022-11-20T07:27:13;86914.80;;;-10.10
69597;BMP180;56802;51.184;-115.558;2022-11-20T07:29:42;86920.00;;;-10.18
69597;BMP180;56802;51.184;-115.558;2022-11-20T07:32:12;86927.60;;;-10.14
69597;BMP180;56802;51.184;-115.558;2022-11-20T07:34:41;86922.00;;;-10.12
69597;BMP180;56802;51.184;-115.558;2022-11-20T07:37:10;86918.20;;;-10.12
69597;BMP180;56802;51.184;-115.558;2022-11-20T07:39:39;86932.00;;;-10.20
69597;BMP180;56802;51.184;-115.558;2022-11-20T07:42:09;86925.00;;;-10.20
69597;BMP180;56802;51.184;-115.558;2022-11-20T07:44:40;86915.00;;;-10.20
69597;BMP180;56802;51.184;-115.558;2022-11-20T07:47:09;86905.00;;;-10.20
69597;BMP180;56802;51.184;-115.558;2022-11-20T07:49:38;86910.40;;;-10.30
69597;BMP180;56802;51.184;-115.558;2022-11-20T07:52:07;86906.40;;;-10.30
69597;BMP180;56802;51.184;-115.558;2022-11-20T07:54:37;86904.20;;;-10.40
69597;BMP180;56802;51.184;-115.558;2022-11-20T07:57:06;86897.20;;;-10.40
69597;BMP180;56802;51.184;-115.558;2022-11-20T07:59:35;86887.20;;;-10.50
69597;BMP180;56802;51.184;-115.558;2022-11-20T08:02:04;86893.60;;;-10.44
69597;BMP180;56802;51.184;-115.558;2022-11-20T08:04:33;86889.00;;;-10.40
69597;BMP180;56802;51.184;-115.558;2022-11-20T08:07:02;86888.80;;;-10.40
69597;BMP180;56802;51.184;-115.558;2022-11-20T08:09:31;86884.20;;;-10.40
69597;BMP180;56802;51.184;-115.558;2022-11-20T08:12:01;86889.00;;;-10.40
69597;BMP180;56802;51.184;-115.558;2022-11-20T08:14:49;86894.40;;;-10.32
69597;BMP180;56802;51.184;-115.558;2022-11-20T08:17:18;86888.20;;;-10.30
69597;BMP180;56802;51.184;-115.558;2022-11-20T08:19:47;86883.00;;;-10.30
69597;BMP180;56802;51.184;-115.558;2022-11-20T08:22:16;86879.80;;;-10.30
69597;BMP180;56802;51.184;-115.558;2022-11-20T08:24:45;86885.60;;;-10.22
69597;BMP180;56802;51.184;-115.558;2022-11-20T08:27:14;86890.20;;;-10.20
69597;BMP180;56802;51.184;-115.558;2022-11-20T08:29:44;86882.80;;;-10.20
69597;BMP180;56802;51.184;-115.558;2022-11-20T08:32:13;86874.60;;;-10.16
69597;BMP180;56802;51.184;-115.558;2022-11-20T08:34:43;86873.00;;;-10.18
69597;BMP180;56802;51.184;-115.558;2022-11-20T08:37:12;86885.20;;;-10.10
69597;BMP180;56802;51.184;-115.558;2022-11-20T08:39:41;86880.40;;;-10.10
69597;BMP180;56802;51.184;-115.558;2022-11-20T08:42:10;86886.00;;;-10.10
69597;BMP180;56802;51.184;-115.558;2022-11-20T08:44:39;86876.80;;;-10.10
69597;BMP180;56802;51.184;-115.558;2022-11-20T08:47:08;86880.00;;;-10.08
69597;BMP180;56802;51.184;-115.558;2022-11-20T08:49:40;86863.40;;;-10.10
69597;BMP180;56802;51.184;-115.558;2022-11-20T08:52:10;86866.40;;;-10.10
69597;BMP180;56802;51.184;-115.558;2022-11-20T08:54:39;86858.40;;;-10.10
69597;BMP180;56802;51.184;-115.558;2022-11-20T08:57:08;86852.00;;;-10.10
69597;BMP180;56802;51.184;-115.558;2022-11-20T08:59:37;86853.00;;;-10.10
69597;BMP180;56802;51.184;-115.558;2022-11-20T09:02:26;86849.40;;;-10.10
69597;BMP180;56802;51.184;-115.558;2022-11-20T09:04:56;86838.40;;;-10.00
69597;BMP180;56802;51.184;-115.558;2022-11-20T09:07:25;86850.20;;;-10.00
69597;BMP180;56802;51.184;-115.558;2022-11-20T09:09:54;86856.60;;;-10.00
69597;BMP180;56802;51.184;-115.558;2022-11-20T09:12:43;86852.80;;;-9.96
69597;BMP180;56802;51.184;-115.558;2022-11-20T09:15:13;86860.00;;;-9.92
69597;BMP180;56802;51.184;-115.558;2022-11-20T09:17:51;86854.40;;;-9.90
69597;BMP180;56802;51.184;-115.558;2022-11-20T09:20:20;86838.00;;;-9.90
69597;BMP180;56802;51.184;-115.558;2022-11-20T09:22:50;86844.40;;;-9.90
69597;BMP180;56802;51.184;-115.558;2022-11-20T09:25:19;86847.00;;;-9.90
69597;BMP180;56802;51.184;-115.558;2022-11-20T09:27:56;86851.00;;;-9.90
69597;BMP180;56802;51.184;-115.558;2022-11-20T09:30:27;86843.20;;;-9.90
69597;BMP180;56802;51.184;-115.558;2022-11-20T09:32:56;86842.00;;;-9.90
69597;BMP180;56802;51.184;-115.558;2022-11-20T09:35:25;86844.40;;;-9.90
69597;BMP180;56802;51.184;-115.558;2022-11-20T09:37:55;86851.20;;;-9.92
69597;BMP180;56802;51.184;-115.558;2022-11-20T09:40:28;86852.20;;;-9.90
69597;BMP180;56802;51.184;-115.558;2022-11-20T09:43:11;86851.20;;;-9.96
69597;BMP180;56802;51.184;-115.558;2022-11-20T09:51:46;86850.80;;;-10.10
69597;BMP180;56802;51.184;-115.558;2022-11-20T09:54:32;86847.20;;;-10.10
69597;BMP180;56802;51.184;-115.558;2022-11-20T09:57:11;86848.40;;;-10.10
69597;BMP180;56802;51.184;-115.558;2022-11-20T09:59:50;86842.80;;;-10.12
69597;BMP180;56802;51.184;-115.558;2022-11-20T10:05:06;86841.80;;;-10.12
69597;BMP180;56802;51.184;-115.558;2022-11-20T10:14:09;86852.20;;;-10.00
69597;BMP180;56802;51.184;-115.558;2022-11-20T10:25:26;86843.00;;;-10.00
69597;BMP180;56802;51.184;-115.558;2022-11-20T10:31:34;86839.40;;;-10.00
69597;BMP180;56802;51.184;-115.558;2022-11-20T10:34:32;86834.40;;;-10.00
69597;BMP180;56802;51.184;-115.558;2022-11-20T10:37:14;86835.80;;;-10.00
69597;BMP180;56802;51.184;-115.558;2022-11-20T10:40:00;86837.00;;;-10.00
69597;BMP180;56802;51.184;-115.558;2022-11-20T10:42:56;86835.00;;;-9.90
69597;BMP180;56802;51.184;-115.558;2022-11-20T10:48:26;86822.40;;;-9.92
69597;BMP180;56802;51.184;-115.558;2022-11-20T10:54:29;86812.40;;;-9.90
69597;BMP180;56802;51.184;-115.558;2022-11-20T11:00:08;86804.00;;;-9.78
69597;BMP180;56802;51.184;-115.558;2022-11-20T11:02:51;86808.40;;;-9.70
69597;BMP180;56802;51.184;-115.558;2022-11-20T11:05:43;86812.20;;;-9.70
69597;BMP180;56802;51.184;-115.558;2022-11-20T11:08:17;86810.00;;;-9.72
69597;BMP180;56802;51.184;-115.558;2022-11-20T11:11:08;86804.40;;;-9.74
69597;BMP180;56802;51.184;-115.558;2022-11-20T11:13:41;86799.60;;;-9.78
69597;BMP180;56802;51.184;-115.558;2022-11-20T11:16:26;86808.80;;;-9.80
69597;BMP180;56802;51.184;-115.558;2022-11-20T11:19:12;86808.60;;;-9.74
69597;BMP180;56802;51.184;-115.558;2022-11-20T11:21:56;86812.40;;;-9.70
69597;BMP180;56802;51.184;-115.558;2022-11-20T11:24:29;86811.20;;;-9.80
69597;BMP180;56802;51.184;-115.558;2022-11-20T11:27:14;86808.20;;;-9.80
69597;BMP180;56802;51.184;-115.558;2022-11-20T11:29:46;86817.20;;;-9.80
69597;BMP180;56802;51.184;-115.558;2022-11-20T11:32:20;86806.60;;;-9.90
69597;BMP180;56802;51.184;-115.558;2022-11-20T11:35:06;86815.60;;;-9.90
69597;BMP180;56802;51.184;-115.558;2022-11-20T11:37:39;86814.20;;;-9.92
69597;BMP180;56802;51.184;-115.558;2022-11-20T11:40:12;86808.00;;;-9.90
69597;BMP180;56802;51.184;-115.558;2022-11-20T11:42:58;86806.60;;;-9.90
69597;BMP180;56802;51.184;-115.558;2022-11-20T11:45:28;86801.20;;;-9.90
69597;BMP180;56802;51.184;-115.558;2022-11-20T11:48:00;86805.60;;;-9.88
69597;BMP180;56802;51.184;-115.558;2022-11-20T11:50:32;86810.40;;;-9.90
69597;BMP180;56802;51.184;-115.558;2022-11-20T11:53:19;86803.00;;;-9.88
69597;BMP180;56802;51.184;-115.558;2022-11-20T11:56:09;86813.40;;;-9.80
69597;BMP180;56802;51.184;-115.558;2022-11-20T11:58:47;86795.00;;;-9.80
69597;BMP180;56802;51.184;-115.558;2022-11-20T12:04:30;86802.00;;;-9.90
69597;BMP180;56802;51.184;-115.558;2022-11-20T12:07:44;86797.60;;;-9.90
69597;BMP180;56802;51.184;-115.558;2022-11-20T12:10:50;86806.20;;;-9.90
69597;BMP180;56802;51.184;-115.558;2022-11-20T12:14:04;86805.40;;;-9.90
69597;BMP180;56802;51.184;-115.558;2022-11-20T12:16:39;86803.20;;;-9.90
69597;BMP180;56802;51.184;-115.558;2022-11-20T12:19:13;86799.20;;;-9.90
69597;BMP180;56802;51.184;-115.558;2022-11-20T12:25:05;86789.40;;;-9.94
69597;BMP180;56802;51.184;-115.558;2022-11-20T12:30:50;86786.40;;;-9.90
69597;BMP180;56802;51.184;-115.558;2022-11-20T12:33:48;86787.00;;;-9.90
69597;BMP180;56802;51.184;-115.558;2022-11-20T12:36:37;86794.40;;;-9.86
69597;BMP180;56802;51.184;-115.558;2022-11-20T12:39:43;86784.40;;;-9.80
69597;BMP180;56802;51.184;-115.558;2022-11-20T12:42:25;86789.40;;;-9.80
69597;BMP180;56802;51.184;-115.558;2022-11-20T12:48:36;86800.60;;;-9.80
69597;BMP180;56802;51.184;-115.558;2022-11-20T13:00:23;86810.40;;;-9.70
69597;BMP180;56802;51.184;-115.558;2022-11-20T13:03:45;86810.00;;;-9.70
69597;BMP180;56802;51.184;-115.558;2022-11-20T13:06:19;86801.80;;;-9.78
69597;BMP180;56802;51.184;-115.558;2022-11-20T13:08:56;86812.20;;;-9.80
69597;BMP180;56802;51.184;-115.558;2022-11-20T13:12:15;86805.00;;;-9.80
69597;BMP180;56802;51.184;-115.558;2022-11-20T13:20:20;86794.00;;;-9.90
69597;BMP180;56802;51.184;-115.558;2022-11-20T13:22:55;86796.00;;;-10.00
69597;BMP180;56802;51.184;-115.558;2022-11-20T13:25:38;86797.60;;;-10.00
69597;BMP180;56802;51.184;-115.558;2022-11-20T13:30:57;86803.00;;;-10.04
69597;BMP180;56802;51.184;-115.558;2022-11-20T13:33:38;86802.60;;;-10.00
69597;BMP180;56802;51.184;-115.558;2022-11-20T13:36:26;86786.20;;;-10.00
69597;BMP180;56802;51.184;-115.558;2022-11-20T13:38:57;86793.80;;;-10.00
69597;BMP180;56802;51.184;-115.558;2022-11-20T13:41:30;86799.40;;;-10.00
69597;BMP180;56802;51.184;-115.558;2022-11-20T13:47:27;86816.80;;;-9.96
69597;BMP180;56802;51.184;-115.558;2022-11-20T13:49:59;86816.40;;;-9.90
69597;BMP180;56802;51.184;-115.558;2022-11-20T13:55:46;86810.60;;;-9.90
69597;BMP180;56802;51.184;-115.558;2022-11-20T14:01:24;86813.20;;;-9.80
69597;BMP180;56802;51.184;-115.558;2022-11-20T14:03:54;86812.80;;;-9.80
69597;BMP180;56802;51.184;-115.558;2022-11-20T14:06:42;86815.40;;;-9.80
69597;BMP180;56802;51.184;-115.558;2022-11-20T14:09:34;86809.20;;;-9.78
69597;BMP180;56802;51.184;-115.558;2022-11-20T14:12:15;86822.40;;;-9.70
69597;BMP180;56802;51.184;-115.558;2022-11-20T14:14:52;86823.00;;;-9.70
69597;BMP180;56802;51.184;-115.558;2022-11-20T14:17:32;86814.60;;;-9.70
69597;BMP180;56802;51.184;-115.558;2022-11-20T14:20:17;86822.80;;;-9.60
69597;BMP180;56802;51.184;-115.558;2022-11-20T14:22:53;86813.20;;;-9.60
69597;BMP180;56802;51.184;-115.558;2022-11-20T14:25:25;86817.60;;;-9.52
69597;BMP180;56802;51.184;-115.558;2022-11-20T14:28:01;86818.00;;;-9.44
69597;BMP180;56802;51.184;-115.558;2022-11-20T14:30:46;86808.20;;;-9.40
69597;BMP180;56802;51.184;-115.558;2022-11-20T14:33:16;86804.60;;;-9.36
69597;BMP180;56802;51.184;-115.558;2022-11-20T14:35:50;86813.60;;;-9.40
69597;BMP180;56802;51.184;-115.558;2022-11-20T14:38:27;86810.60;;;-9.40
69597;BMP180;56802;51.184;-115.558;2022-11-20T14:41:18;86817.60;;;-9.40
69597;BMP180;56802;51.184;-115.558;2022-11-20T14:44:00;86811.60;;;-9.38
69597;BMP180;56802;51.184;-115.558;2022-11-20T14:46:31;86812.60;;;-9.40
69597;BMP180;56802;51.184;-115.558;2022-11-20T14:49:03;86808.80;;;-9.36
69597;BMP180;56802;51.184;-115.558;2022-11-20T14:51:40;86806.80;;;-9.30
69597;BMP180;56802;51.184;-115.558;2022-11-20T14:54:18;86799.20;;;-9.28
69597;BMP180;56802;51.184;-115.558;2022-11-20T14:57:00;86797.80;;;-9.20
69597;BMP180;56802;51.184;-115.558;2022-11-20T14:59:33;86793.00;;;-9.26
69597;BMP180;56802;51.184;-115.558;2022-11-20T15:02:11;86789.00;;;-9.30
69597;BMP180;56802;51.184;-115.558;2022-11-20T15:05:10;86795.20;;;-9.30
69597;BMP180;56802;51.184;-115.558;2022-11-20T15:07:46;86791.80;;;-9.30
69597;BMP180;56802;51.184;-115.558;2022-11-20T15:10:26;86802.20;;;-9.30
69597;BMP180;56802;51.184;-115.558;2022-11-20T15:13:10;86805.80;;;-9.30
69597;BMP180;56802;51.184;-115.558;2022-11-20T15:15:52;86805.80;;;-9.30
69597;BMP180;56802;51.184;-115.558;2022-11-20T15:18:38;86809.80;;;-9.30
69597;BMP180;56802;51.184;-115.558;2022-11-20T15:21:19;86820.20;;;-9.22
69597;BMP180;56802;51.184;-115.558;2022-11-20T15:23:51;86824.20;;;-9.20
69597;BMP180;56802;51.184;-115.558;2022-11-20T15:26:27;86820.20;;;-9.20
69597;BMP180;56802;51.184;-115.558;2022-11-20T15:28:56;86822.60;;;-9.20